createdAt,value
2023-05-25T00:01:02.426Z,3.42
2023-05-25T00:03:31.382Z,3.33
2023-05-25T00:05:58.839Z,3.42
2023-05-25T00:08:25.404Z,4.13
2023-05-25T00:10:52.034Z,3.30
2023-05-25T00:13:18.565Z,4.10
2023-05-25T00:15:45.331Z,3.40
2023-05-25T00:18:13.137Z,4.60
2023-05-25T00:20:39.968Z,3.72
2023-05-25T00:23:06.647Z,4.10
2023-05-25T00:25:33.109Z,3.65
2023-05-25T00:27:59.660Z,3.80
2023-05-25T00:30:26.192Z,3.60
2023-05-25T00:32:54.047Z,4.63
2023-05-25T00:35:20.689Z,4.22
2023-05-25T00:37:47.650Z,4.05
2023-05-25T00:40:16.488Z,3.67
2023-05-25T00:42:43.991Z,3.00
2023-05-25T00:45:11.289Z,3.20
2023-05-25T00:47:39.669Z,3.33
2023-05-25T00:50:09.343Z,3.63
2023-05-25T00:52:36.074Z,5.45
2023-05-25T00:55:03.865Z,4.65
2023-05-25T00:57:34.145Z,4.88
2023-05-25T01:00:02.308Z,4.18
2023-05-25T01:02:29.618Z,3.53
2023-05-25T01:05:00.977Z,4.47
2023-05-25T01:07:27.881Z,4.88
2023-05-25T01:09:58.670Z,3.83
2023-05-25T01:12:29.140Z,3.67
2023-05-25T01:14:57.000Z,4.00
2023-05-25T01:17:23.599Z,4.63
2023-05-25T01:20:08.219Z,4.97
2023-05-25T01:22:51.431Z,4.50
2023-05-25T01:25:44.906Z,4.55
2023-05-25T01:28:16.626Z,4.30
2023-05-25T01:30:47.427Z,4.00
2023-05-25T01:33:14.311Z,3.80
2023-05-25T01:35:42.279Z,4.53
2023-05-25T01:38:09.837Z,3.58
2023-05-25T01:40:36.453Z,3.53
2023-05-25T01:43:02.961Z,3.95
2023-05-25T01:45:32.924Z,3.85
2023-05-25T01:48:31.068Z,3.72
2023-05-25T01:51:23.402Z,4.95
2023-05-25T01:53:56.086Z,3.55
2023-05-25T01:56:26.564Z,3.75
2023-05-25T01:58:54.553Z,5.07
2023-05-25T02:01:22.720Z,4.38
2023-05-25T02:03:49.517Z,4.28
2023-05-25T02:06:16.594Z,3.60
2023-05-25T02:08:44.203Z,4.18
2023-05-25T02:11:13.490Z,3.90
2023-05-25T02:13:40.754Z,4.53
2023-05-25T02:16:08.161Z,4.28
2023-05-25T02:18:34.674Z,3.97
2023-05-25T02:21:01.223Z,3.95
2023-05-25T02:23:27.705Z,3.35
2023-05-25T02:25:54.162Z,3.72
2023-05-25T02:28:20.718Z,4.35
2023-05-25T02:30:47.229Z,3.40
2023-05-25T02:33:13.797Z,3.78
2023-05-25T02:35:41.965Z,4.05
2023-05-25T02:38:08.732Z,3.95
2023-05-25T02:40:35.449Z,4.22
2023-05-25T02:43:02.117Z,3.60
2023-05-25T02:45:28.614Z,3.35
2023-05-25T02:47:55.119Z,3.50
2023-05-25T02:50:21.686Z,3.85
2023-05-25T02:52:48.163Z,4.00
2023-05-25T02:55:14.738Z,4.25
2023-05-25T02:57:42.079Z,3.88
2023-05-25T03:00:11.726Z,5.03
2023-05-25T03:02:38.314Z,5.18
2023-05-25T03:05:05.416Z,5.18
2023-05-25T03:07:31.980Z,4.80
2023-05-25T03:09:59.368Z,4.72
2023-05-25T03:12:25.926Z,3.88
2023-05-25T03:14:52.488Z,4.10
2023-05-25T03:17:19.058Z,4.05
2023-05-25T03:19:45.639Z,4.03
2023-05-25T03:22:12.122Z,3.72
2023-05-25T03:24:41.614Z,3.35
2023-05-25T03:27:08.887Z,3.67
2023-05-25T03:29:35.548Z,3.38
2023-05-25T03:32:02.046Z,4.05
2023-05-25T03:34:29.656Z,3.67
2023-05-25T03:36:56.344Z,4.65
2023-05-25T03:39:22.856Z,4.35
2023-05-25T03:41:49.318Z,3.60
2023-05-25T03:44:15.872Z,3.92
2023-05-25T03:46:42.338Z,3.90
2023-05-25T03:49:13.606Z,4.53
2023-05-25T03:51:43.481Z,4.25
2023-05-25T03:54:10.364Z,4.05
2023-05-25T03:56:36.848Z,4.00
2023-05-25T03:59:03.322Z,4.10
2023-05-25T04:01:30.098Z,4.53
2023-05-25T04:03:57.214Z,4.60
2023-05-25T04:06:25.417Z,3.85
2023-05-25T04:08:52.427Z,4.28
2023-05-25T04:11:19.611Z,4.25
2023-05-25T04:13:46.254Z,4.60
2023-05-25T04:16:13.265Z,4.40
2023-05-25T04:18:39.828Z,3.80
2023-05-25T04:21:06.355Z,4.68
2023-05-25T04:23:34.000Z,4.55
2023-05-25T04:26:01.057Z,4.28
2023-05-25T04:28:28.317Z,4.15
2023-05-25T04:30:57.867Z,3.75
2023-05-25T04:33:24.851Z,3.97
2023-05-25T04:35:51.344Z,4.55
2023-05-25T04:38:17.867Z,4.88
2023-05-25T04:40:46.398Z,4.90
2023-05-25T04:43:13.724Z,5.07
2023-05-25T04:45:40.376Z,4.82
2023-05-25T04:48:07.391Z,4.22
2023-05-25T04:50:33.977Z,5.10
2023-05-25T04:53:00.602Z,6.43
2023-05-25T04:55:27.078Z,6.13
2023-05-25T04:57:54.822Z,6.53
2023-05-25T05:00:22.004Z,6.63
2023-05-25T05:02:48.968Z,4.95
2023-05-25T05:05:15.699Z,5.63
2023-05-25T05:07:42.207Z,5.00
2023-05-25T05:10:09.110Z,5.82
2023-05-25T05:12:35.759Z,6.70
2023-05-25T05:15:02.325Z,4.57
2023-05-25T05:17:30.758Z,6.13
2023-05-25T05:19:57.722Z,4.90
2023-05-25T05:22:24.257Z,5.82
2023-05-25T05:24:51.056Z,6.10
2023-05-25T05:27:19.301Z,5.85
2023-05-25T05:29:46.085Z,6.00
2023-05-25T05:32:12.510Z,5.65
2023-05-25T05:34:38.982Z,5.32
2023-05-25T05:37:05.515Z,6.82
2023-05-25T05:39:32.228Z,5.57
2023-05-25T05:41:59.486Z,6.25
2023-05-25T05:44:29.039Z,6.18
2023-05-25T05:47:00.532Z,6.22
2023-05-25T05:49:31.977Z,7.30
2023-05-25T05:51:58.744Z,7.07
2023-05-25T05:54:27.748Z,6.25
2023-05-25T05:56:54.400Z,6.70
2023-05-25T05:59:21.962Z,5.95
2023-05-25T06:01:48.620Z,6.72
2023-05-25T06:04:16.037Z,5.65
2023-05-25T06:06:43.248Z,7.85
2023-05-25T06:09:09.805Z,7.35
2023-05-25T06:11:37.473Z,5.88
2023-05-25T06:14:04.113Z,6.82
2023-05-25T06:16:30.866Z,5.57
2023-05-25T06:18:57.404Z,6.30
2023-05-25T06:21:24.066Z,6.00
2023-05-25T06:23:50.684Z,7.60
2023-05-25T06:26:17.166Z,5.85
2023-05-25T06:28:43.712Z,7.38
2023-05-25T06:31:10.206Z,7.07
2023-05-25T06:33:36.654Z,6.07
2023-05-25T06:36:04.903Z,5.97
2023-05-25T06:38:32.184Z,7.13
2023-05-25T06:41:03.198Z,5.88
2023-05-25T06:43:29.827Z,5.95
2023-05-25T06:45:56.344Z,7.40
2023-05-25T06:48:22.864Z,7.22
2023-05-25T06:50:49.347Z,5.40
2023-05-25T06:53:15.920Z,7.32
2023-05-25T06:55:42.828Z,7.30
2023-05-25T06:58:09.563Z,6.32
2023-05-25T07:00:36.074Z,6.90
2023-05-25T07:03:02.714Z,6.00
2023-05-25T07:05:29.350Z,7.07
2023-05-25T07:07:55.807Z,6.60
2023-05-25T07:10:22.941Z,8.70
2023-05-25T07:12:49.418Z,6.05
2023-05-25T07:15:16.423Z,7.13
2023-05-25T07:17:43.010Z,7.07
2023-05-25T07:20:10.650Z,8.40
2023-05-25T07:22:37.210Z,5.28
2023-05-25T07:25:03.962Z,6.10
2023-05-25T07:27:30.463Z,6.70
2023-05-25T07:29:56.925Z,8.65
2023-05-25T07:32:23.500Z,8.52
2023-05-25T07:34:50.024Z,7.85
2023-05-25T07:37:16.530Z,7.10
2023-05-25T07:39:43.105Z,7.82
2023-05-25T07:42:10.994Z,6.07
2023-05-25T07:44:37.487Z,7.60
2023-05-25T07:47:04.269Z,6.03
2023-05-25T07:49:30.718Z,5.97
2023-05-25T07:51:57.188Z,7.90
2023-05-25T07:54:23.728Z,6.35
2023-05-25T07:56:50.103Z,7.65
2023-05-25T07:59:16.542Z,7.07
2023-05-25T08:01:43.159Z,6.90
2023-05-25T08:04:09.881Z,5.95
2023-05-25T08:06:36.418Z,5.85
2023-05-25T08:09:04.709Z,6.30
2023-05-25T08:11:31.242Z,6.80
2023-05-25T08:13:57.744Z,7.93
2023-05-25T08:16:24.261Z,7.20
2023-05-25T08:18:51.423Z,6.78
2023-05-25T08:21:17.962Z,6.65
2023-05-25T08:23:44.447Z,5.55
2023-05-25T08:26:31.145Z,5.03
2023-05-25T08:28:58.202Z,7.28
2023-05-25T08:31:24.746Z,6.72
2023-05-25T08:33:51.345Z,5.75
2023-05-25T08:36:17.896Z,5.72
2023-05-25T08:38:44.454Z,6.18
2023-05-25T08:41:12.074Z,5.30
2023-05-25T08:43:38.644Z,5.85
2023-05-25T08:46:06.831Z,5.72
2023-05-25T08:48:41.619Z,4.95
2023-05-25T08:51:11.647Z,4.07
2023-05-25T08:53:41.505Z,4.82
2023-05-25T08:56:19.709Z,5.30
2023-05-25T08:58:53.684Z,5.78
2023-05-25T09:01:22.527Z,5.20
2023-05-25T09:03:50.306Z,4.53
2023-05-25T09:06:17.565Z,5.05
2023-05-25T09:08:45.076Z,5.07
2023-05-25T09:11:16.226Z,3.67
2023-05-25T09:13:43.520Z,4.47
2023-05-25T09:16:11.120Z,4.38
2023-05-25T09:18:37.685Z,4.70
2023-05-25T09:21:04.693Z,5.30
2023-05-25T09:23:31.452Z,5.63
2023-05-25T09:25:58.470Z,6.75
2023-05-25T09:28:27.390Z,5.88
2023-05-25T09:30:54.574Z,4.47
2023-05-25T09:33:21.425Z,6.15
2023-05-25T09:35:48.386Z,5.35
2023-05-25T09:38:16.635Z,5.03
2023-05-25T09:40:44.159Z,5.07
2023-05-25T09:43:13.368Z,4.43
2023-05-25T09:45:44.871Z,5.25
2023-05-25T09:48:11.554Z,4.78
2023-05-25T09:50:38.127Z,5.20
2023-05-25T09:53:04.677Z,5.70
2023-05-25T09:55:40.408Z,5.15
2023-05-25T09:58:17.857Z,5.40
2023-05-25T10:00:46.193Z,6.22
2023-05-25T10:03:15.156Z,5.82
2023-05-25T10:05:41.922Z,4.88
2023-05-25T10:08:10.470Z,4.78
2023-05-25T10:10:38.618Z,5.53
2023-05-25T10:13:08.787Z,5.15
2023-05-25T10:18:06.688Z,4.70
2023-05-25T10:20:35.327Z,4.75
2023-05-25T10:23:12.843Z,4.60
2023-05-25T10:25:47.153Z,4.82
2023-05-25T10:28:28.313Z,5.72
2023-05-25T10:30:57.257Z,4.78
2023-05-25T10:33:24.087Z,4.55
2023-05-25T10:36:02.150Z,6.00
2023-05-25T10:38:35.660Z,6.93
2023-05-25T10:41:04.428Z,8.05
2023-05-25T10:43:31.293Z,8.13
2023-05-25T10:45:57.956Z,6.40
2023-05-25T10:48:35.116Z,7.13
2023-05-25T10:51:01.681Z,6.22
2023-05-25T10:53:28.163Z,6.10
2023-05-25T10:55:54.576Z,6.22
2023-05-25T10:58:22.925Z,6.10
2023-05-25T11:01:01.472Z,6.55
2023-05-25T11:03:47.015Z,6.43
2023-05-25T11:06:17.967Z,7.65
2023-05-25T11:08:51.080Z,6.10
2023-05-25T11:11:18.115Z,8.98
2023-05-25T11:13:46.179Z,9.93
2023-05-25T11:16:24.193Z,8.38
2023-05-25T11:19:00.956Z,8.23
2023-05-25T11:21:27.402Z,8.95
2023-05-25T11:24:06.808Z,8.35
2023-05-25T11:26:34.507Z,7.75
2023-05-25T11:29:11.917Z,6.93
2023-05-25T11:31:42.476Z,5.68
2023-05-25T11:34:11.832Z,5.35
2023-05-25T11:36:39.356Z,5.70
2023-05-25T11:39:14.246Z,6.05
2023-05-25T11:41:48.831Z,6.82
2023-05-25T11:44:15.345Z,6.53
2023-05-25T11:46:43.689Z,5.15
2023-05-25T11:49:10.439Z,6.00
2023-05-25T11:51:37.971Z,6.22
2023-05-25T11:54:04.686Z,5.97
2023-05-25T11:56:35.517Z,5.32
2023-05-25T11:59:02.661Z,5.13
2023-05-25T12:01:31.884Z,6.18
2023-05-25T12:03:58.896Z,6.35
2023-05-25T12:06:39.015Z,6.45
2023-05-25T12:09:11.742Z,5.57
2023-05-25T12:11:38.854Z,7.57
2023-05-25T12:14:07.319Z,5.13
2023-05-25T12:16:37.051Z,5.70
2023-05-25T12:19:03.876Z,6.15
2023-05-25T12:21:31.037Z,6.15
2023-05-25T12:23:58.089Z,6.88
2023-05-25T12:26:24.744Z,6.25
2023-05-25T12:29:10.161Z,6.20
2023-05-25T12:31:38.723Z,5.60
2023-05-25T12:34:09.079Z,6.43
2023-05-25T12:36:50.709Z,6.13
2023-05-25T12:39:32.395Z,6.97
2023-05-25T12:42:00.446Z,6.20
2023-05-25T12:44:31.781Z,5.65
2023-05-25T12:47:23.117Z,5.53
2023-05-25T12:49:53.850Z,6.32
2023-05-25T12:52:41.221Z,4.40
2023-05-25T12:55:30.424Z,4.60
2023-05-25T12:58:01.502Z,5.85
2023-05-25T13:00:31.847Z,4.65
2023-05-25T13:02:59.097Z,5.25
2023-05-25T13:05:30.717Z,5.13
2023-05-25T13:07:58.104Z,4.82
2023-05-25T13:10:25.160Z,5.70
2023-05-25T13:12:53.849Z,4.63
2023-05-25T13:15:21.850Z,4.95
2023-05-25T13:17:50.423Z,4.45
2023-05-25T13:20:19.122Z,5.45
2023-05-25T13:22:47.065Z,5.03
2023-05-25T13:25:14.607Z,5.47
2023-05-25T13:27:46.873Z,5.85
2023-05-25T13:30:14.306Z,5.00
2023-05-25T13:32:43.074Z,5.07
2023-05-25T13:35:17.403Z,6.50
2023-05-25T13:37:43.972Z,5.97
2023-05-25T13:40:11.080Z,4.10
2023-05-25T13:42:37.552Z,6.03
2023-05-25T13:45:04.266Z,5.70
2023-05-25T13:47:30.854Z,5.93
2023-05-25T13:49:57.440Z,5.80
2023-05-25T13:52:24.283Z,9.13
2023-05-25T13:54:50.752Z,5.68
2023-05-25T13:57:17.287Z,5.70
2023-05-25T13:59:43.715Z,5.70
2023-05-25T14:02:10.240Z,4.55
2023-05-25T14:04:36.781Z,5.38
2023-05-25T14:07:03.414Z,5.28
2023-05-25T14:09:29.959Z,4.90
2023-05-25T14:11:56.463Z,5.20
2023-05-25T14:14:31.376Z,4.20
2023-05-25T14:16:59.769Z,5.10
2023-05-25T14:19:26.348Z,4.38
2023-05-25T14:22:11.106Z,4.80
2023-05-25T14:24:38.979Z,5.00
2023-05-25T14:27:07.114Z,6.60
2023-05-25T14:29:33.904Z,4.85
2023-05-25T14:32:00.433Z,4.43
2023-05-25T14:34:27.013Z,4.75
2023-05-25T14:36:53.522Z,4.45
2023-05-25T14:39:19.980Z,5.22
2023-05-25T14:41:46.487Z,5.03
2023-05-25T14:44:12.908Z,4.78
2023-05-25T14:46:39.496Z,4.70
2023-05-25T14:49:06.037Z,4.18
2023-05-25T14:51:32.480Z,4.88
2023-05-25T14:54:01.309Z,4.43
2023-05-25T14:56:28.390Z,5.53
2023-05-25T14:58:54.880Z,5.10
2023-05-25T15:01:23.672Z,4.80
2023-05-25T15:03:51.789Z,4.22
2023-05-25T15:06:18.372Z,4.30
2023-05-25T15:08:44.833Z,4.75
2023-05-25T15:11:11.412Z,3.95
2023-05-25T15:13:38.084Z,3.83
2023-05-25T15:16:04.890Z,4.68
2023-05-25T15:18:31.410Z,4.03
2023-05-25T15:21:00.524Z,4.50
2023-05-25T15:23:26.980Z,4.22
2023-05-25T15:25:53.448Z,4.20
2023-05-25T15:28:19.935Z,3.85
2023-05-25T15:30:46.698Z,4.32
2023-05-25T15:33:14.082Z,4.00
2023-05-25T15:35:40.646Z,4.10
2023-05-25T15:38:07.215Z,3.97
2023-05-25T15:40:33.977Z,4.65
2023-05-25T15:43:00.483Z,4.90
2023-05-25T15:45:26.956Z,3.45
2023-05-25T15:47:53.489Z,4.15
2023-05-25T15:50:19.960Z,4.75
2023-05-25T15:52:46.866Z,4.40
2023-05-25T15:55:13.493Z,4.90
2023-05-25T15:57:40.013Z,3.72
2023-05-25T16:00:07.386Z,3.97
2023-05-25T16:02:33.928Z,4.47
2023-05-25T16:05:00.474Z,3.95
2023-05-25T16:07:26.910Z,3.83
2023-05-25T16:09:53.428Z,4.00
2023-05-25T16:12:24.714Z,3.55
2023-05-25T16:14:51.654Z,3.83
2023-05-25T16:17:18.113Z,3.70
2023-05-25T16:19:44.594Z,3.70
2023-05-25T16:22:11.110Z,4.25
2023-05-25T16:24:37.606Z,3.30
2023-05-25T16:27:04.616Z,3.67
2023-05-25T16:29:31.093Z,3.40
2023-05-25T16:31:57.920Z,3.20
2023-05-25T16:34:24.582Z,3.15
2023-05-25T16:36:51.064Z,2.67
2023-05-25T16:39:17.567Z,2.63
2023-05-25T16:41:44.056Z,3.55
2023-05-25T16:44:11.458Z,3.63
2023-05-25T16:46:38.404Z,3.80
2023-05-25T16:49:05.323Z,4.45
2023-05-25T16:51:31.895Z,3.85
2023-05-25T16:53:58.358Z,3.30
2023-05-25T16:56:24.812Z,2.67
2023-05-25T16:58:51.756Z,3.42
2023-05-25T17:01:20.132Z,3.38
2023-05-25T17:03:46.788Z,3.10
2023-05-25T17:06:13.641Z,4.25
2023-05-25T17:08:40.089Z,3.10
2023-05-25T17:11:06.581Z,2.88
2023-05-25T17:13:33.069Z,2.53
2023-05-25T17:15:59.571Z,2.53
2023-05-25T17:18:26.919Z,3.75
2023-05-25T17:20:53.726Z,3.33
2023-05-25T17:23:20.816Z,3.75
2023-05-25T17:25:47.552Z,2.83
2023-05-25T17:28:14.080Z,2.65
2023-05-25T17:30:40.604Z,3.30
2023-05-25T17:33:07.084Z,3.28
2023-05-25T17:35:33.619Z,4.63
2023-05-25T17:38:00.221Z,6.90
2023-05-25T17:40:26.725Z,7.05
2023-05-25T17:42:53.155Z,3.90
2023-05-25T17:45:19.768Z,7.47
2023-05-25T17:47:46.354Z,5.55
2023-05-25T17:50:12.946Z,7.10
2023-05-25T17:52:39.483Z,19.88
2023-05-25T17:55:07.001Z,4.50
2023-05-25T17:57:33.529Z,5.05
2023-05-25T18:00:00.015Z,4.22
2023-05-25T18:02:29.042Z,4.82
2023-05-25T18:04:56.196Z,5.22
2023-05-25T18:07:22.780Z,6.47
2023-05-25T18:09:49.310Z,3.80
2023-05-25T18:12:15.867Z,6.00
2023-05-25T18:14:42.454Z,3.58
2023-05-25T18:17:09.219Z,4.03
2023-05-25T18:19:35.838Z,3.47
2023-05-25T18:22:02.313Z,2.63
2023-05-25T18:24:28.844Z,5.05
2023-05-25T18:26:55.300Z,4.43
2023-05-25T18:29:21.799Z,4.82
2023-05-25T18:31:48.964Z,4.47
2023-05-25T18:34:16.045Z,11.68
2023-05-25T18:36:42.730Z,5.90
2023-05-25T18:39:09.388Z,3.40
2023-05-25T18:41:35.907Z,2.83
2023-05-25T18:44:02.399Z,3.42
2023-05-25T18:46:29.398Z,3.42
2023-05-25T18:48:56.096Z,6.63
2023-05-25T18:51:25.600Z,4.82
2023-05-25T18:53:52.077Z,3.13
2023-05-25T18:56:18.617Z,2.42
2023-05-25T18:58:45.295Z,3.10
2023-05-25T19:01:11.771Z,3.72
2023-05-25T19:03:38.424Z,2.60
2023-05-25T19:06:05.233Z,2.83
2023-05-25T19:08:31.708Z,2.55
2023-05-25T19:10:58.138Z,2.95
2023-05-25T19:13:24.668Z,2.80
2023-05-25T19:15:51.212Z,2.60
2023-05-25T19:18:17.851Z,2.28
2023-05-25T19:20:44.440Z,2.22
2023-05-25T19:23:11.511Z,2.00
2023-05-25T19:25:37.974Z,1.83
2023-05-25T19:28:04.590Z,2.08
2023-05-25T19:30:31.218Z,2.20
2023-05-25T19:32:57.791Z,2.60
2023-05-25T19:35:24.390Z,2.30
2023-05-25T19:37:50.862Z,2.40
2023-05-25T19:40:17.544Z,2.20
2023-05-25T19:42:44.289Z,2.47
2023-05-25T19:45:11.242Z,1.95
2023-05-25T19:47:37.808Z,2.17
2023-05-25T19:50:04.728Z,2.38
2023-05-25T19:52:31.587Z,2.65
2023-05-25T19:54:58.083Z,2.10
2023-05-25T19:57:26.147Z,2.55
2023-05-25T19:59:53.002Z,2.60
2023-05-25T20:02:19.641Z,2.80
2023-05-25T20:04:46.693Z,2.47
2023-05-25T20:07:13.301Z,2.53
2023-05-25T20:09:39.849Z,2.40
2023-05-25T20:12:07.195Z,2.97
2023-05-25T20:14:33.715Z,2.65
2023-05-25T20:17:00.323Z,2.33
2023-05-25T20:19:26.957Z,2.55
2023-05-25T20:21:53.584Z,2.22
2023-05-25T20:24:20.047Z,2.55
2023-05-25T20:26:46.485Z,2.30
2023-05-25T20:29:12.984Z,2.60
2023-05-25T20:31:40.312Z,2.25
2023-05-25T20:34:07.231Z,2.85
2023-05-25T20:36:33.697Z,2.85
2023-05-25T20:39:00.362Z,2.80
2023-05-25T20:41:27.071Z,3.03
2023-05-25T20:43:53.529Z,2.70
2023-05-25T20:46:20.122Z,2.95
2023-05-25T20:48:46.633Z,2.67
2023-05-25T20:51:14.235Z,2.58
2023-05-25T20:53:40.838Z,2.53
2023-05-25T20:56:07.269Z,2.95
2023-05-25T20:58:33.736Z,2.80
2023-05-25T21:01:00.168Z,3.17
2023-05-25T21:03:26.803Z,3.03
2023-05-25T21:05:53.353Z,2.75
2023-05-25T21:08:19.855Z,2.88
2023-05-25T21:10:46.467Z,2.17
2023-05-25T21:13:12.959Z,2.92
2023-05-25T21:15:39.443Z,2.60
2023-05-25T21:18:07.038Z,4.50
2023-05-25T21:20:33.768Z,3.33
2023-05-25T21:23:02.435Z,5.80
2023-05-25T21:25:29.978Z,3.85
2023-05-25T21:27:57.102Z,2.90
2023-05-25T21:30:24.376Z,3.45
2023-05-25T21:32:51.335Z,3.08
2023-05-25T21:35:18.156Z,3.05
2023-05-25T21:37:45.681Z,3.35
2023-05-25T21:40:12.616Z,2.90
2023-05-25T21:42:39.063Z,2.90
2023-05-25T21:45:05.910Z,2.80
2023-05-25T21:47:32.444Z,4.55
2023-05-25T21:49:58.925Z,3.78
2023-05-25T21:52:25.439Z,3.70
2023-05-25T21:54:52.149Z,3.50
2023-05-25T21:57:18.619Z,3.75
2023-05-25T21:59:45.167Z,3.63
2023-05-25T22:02:11.793Z,4.43
2023-05-25T22:04:38.371Z,4.30
2023-05-25T22:07:04.906Z,4.55
2023-05-25T22:09:31.746Z,4.63
2023-05-25T22:11:58.254Z,3.83
2023-05-25T22:14:24.681Z,4.85
2023-05-25T22:16:51.249Z,3.60
2023-05-25T22:19:17.884Z,3.75
2023-05-25T22:21:44.363Z,3.78
2023-05-25T22:24:10.998Z,5.22
2023-05-25T22:26:37.461Z,4.68
2023-05-25T22:29:03.941Z,4.47
2023-05-25T22:31:30.570Z,4.32
2023-05-25T22:33:57.075Z,3.92
2023-05-25T22:36:23.538Z,5.00
2023-05-25T22:38:49.982Z,4.10
2023-05-25T22:41:16.490Z,4.97
2023-05-25T22:43:43.562Z,4.55
2023-05-25T22:46:10.132Z,5.13
2023-05-25T22:48:36.572Z,4.60
2023-05-25T22:51:03.266Z,4.07
2023-05-25T22:53:29.764Z,4.70
2023-05-25T22:55:56.258Z,4.43
2023-05-25T22:58:22.830Z,4.53
2023-05-25T23:00:49.318Z,4.82
2023-05-25T23:03:15.851Z,5.00
2023-05-25T23:05:43.725Z,4.25
2023-05-25T23:08:10.618Z,3.78
2023-05-25T23:10:37.063Z,3.65
2023-05-25T23:13:03.522Z,3.28
2023-05-25T23:15:30.774Z,4.15
2023-05-25T23:17:57.331Z,4.60
2023-05-25T23:20:23.888Z,3.88
2023-05-25T23:22:50.487Z,4.40
2023-05-25T23:25:16.999Z,4.18
2023-05-25T23:27:43.459Z,4.10
2023-05-25T23:30:10.457Z,4.13
2023-05-25T23:32:36.883Z,4.72
2023-05-25T23:35:04.041Z,5.07
2023-05-25T23:37:30.527Z,4.45
2023-05-25T23:39:56.961Z,4.13
2023-05-25T23:42:23.465Z,4.30
2023-05-25T23:44:49.953Z,4.75
2023-05-25T23:47:16.454Z,4.40
2023-05-25T23:49:42.928Z,3.67
2023-05-25T23:52:09.393Z,3.25
2023-05-25T23:54:35.990Z,3.78
2023-05-25T23:57:02.428Z,4.22
2023-05-25T23:59:28.937Z,3.53
